Overview Statistics Trail Chart Weather Telemetry Raw packets
 

This is the latest recevied weather packets stored in our database for station/object HG8GL-14. If no packets are shown the sender has not sent any weather packets the latest 10 day(s).

<< 1 2 >>
Time Temp. Humidity Pressure Rain* Wind** Luminosity Snow
1787906795 31.11° C 24% 1019.8 hPa - - - -
1787906192 30° C 26% 1021.2 hPa - - - -
1787904985 28.33° C 31% 1021 hPa - - - -
1787903778 27.78° C 34% 1020.3 hPa - - - -
1787903174 28.33° C 33% 1021.3 hPa - - - -
1787902571 27.78° C 34% 1020.4 hPa - - - -
1787901967 27.22° C 36% 1020 hPa - - - -
1787901364 26.67° C 39% 1020.7 hPa - - - -
1787901141 26.67° C 39% 1021 hPa - - - -
1787900760 26.67° C 39% 1021 hPa - - - -
1787900157 26.11° C 39% 1019.2 hPa - - - -
1787898950 25° C 42% 1019.5 hPa - - - -
1787898346 23.89° C 45% 1020.4 hPa - - - -
1787897973 23.33° C 46% 1020 hPa - - - -
1787897742 23.33° C 46% 1020 hPa - - - -
1787897139 22.22° C 48% 1020.4 hPa - - - -
1787896594 22.22° C 49% 1020.1 hPa - - - -
1787896535 22.22° C 49% 1020.1 hPa - - - -
1787895328 21.11° C 51% 1021.1 hPa - - - -
1787894725 21.11° C 52% 1022.3 hPa - - - -
1787893518 20° C 55% 1021 hPa - - - -

* Rain since midnight (hover to see other rain measurements)
** Current wind speed in m/s (hover to see current wind gust speed)